Bremen, Illinois
Current Conditions -  °F | °C
As of 1:15 PM on Saturday 20 Dec 2014 (Local Time) from KSAR Reporting Station
Overcast Overcast  
Wind Chill: 40°   Ceiling: 2600
Heat Index: 40°   Visibility: 10mi
Dew Point: 32°   Wind: 3mph
Humidity: 75%   Direction: 140°SE
Pressure: 30.25"   Gusts: NA
Location:  37.9444°N, 89.7851°W
Report Text: KSAR 201915Z AUTO 14003KT 10SM OVC026 04/00 A3025 RMK AO2 T00420001
Loading
Personal Weather Stations






























Interactive Weather Map New forecast layout! Learn more

10-Day Weather Forecast

Advertisements
Track Severe Weather on mobile